Artesia, Mississippi
Current Conditions -  °F | °C
As of 7:45 AM on Thursday 29 Jan 2015 (Local Time) from KGTR Reporting Station
Overcast Overcast  
Wind Chill: 40°   Ceiling: 11000
Heat Index: 45°   Visibility: 10mi
Dew Point: 36°   Wind: 8mph
Humidity: 71%   Direction: 170°S
Pressure: 30.19"   Gusts: NA
Location:  33.42°N, 88.64°W
Report Text: KGTR 291345Z 17007KT 10SM OVC110 07/02 A3019
Loading
Personal Weather Stations






























Interactive Weather Map New forecast layout! Learn more

10-Day Weather Forecast

Advertisements
Track Severe Weather on mobile